Time,TemperatureF,DewpointF,PressureIn,WindDirection,WindDirectionDegrees,WindSpeedMPH,WindSpeedGustMPH,Humidity,HourlyPrecipIn,Conditions,Clouds,dailyrainin,SolarRadiationWatts/m^2,SoftwareType,DateUTC
2013-01-24 00:01:00,16.4,12.4,30.12,South,169,0.0,0.0,84,0.00,,,0.00,0,Wunderground v.1.15,2013-01-24 05:01:00,
2013-01-24 00:03:00,16.4,12.4,30.12,South,169,0.0,0.0,84,0.00,,,0.00,0,Wunderground v.1.15,2013-01-24 05:03:00,
2013-01-24 00:04:00,16.4,12.4,30.12,South,169,0.0,0.0,84,0.00,,,0.00,0,Wunderground v.1.15,2013-01-24 05:04:00,
2013-01-24 00:09:00,16.4,12.4,30.13,South,169,0.0,0.0,84,0.00,,,0.00,0,Wunderground v.1.15,2013-01-24 05:09:00,
2013-01-24 00:15:00,16.4,12.7,30.12,South,169,0.0,0.0,85,0.00,,,0.00,0,Wunderground v.1.15,2013-01-24 05:15:00,
2013-01-24 00:20:00,16.4,12.7,30.12,South,169,0.0,0.0,85,0.00,,,0.00,0,Wunderground v.1.15,2013-01-24 05:20:00,
2013-01-24 00:27:00,16.4,12.7,30.11,South,169,0.0,0.0,85,0.00,,,0.00,0,Wunderground v.1.15,2013-01-24 05:27:00,
2013-01-24 00:32:00,16.4,12.7,30.11,South,169,0.0,0.0,85,0.00,,,0.00,0,Wunderground v.1.15,2013-01-24 05:32:00,
2013-01-24 00:37:00,16.4,12.9,30.11,South,169,0.0,0.0,86,0.00,,,0.00,0,Wunderground v.1.15,2013-01-24 05:37:00,
2013-01-24 00:43:00,16.4,12.9,30.11,South,169,0.0,0.0,86,0.00,,,0.00,0,Wunderground v.1.15,2013-01-24 05:43:00,
2013-01-24 00:48:00,16.3,12.8,30.11,South,169,0.0,0.0,86,0.00,,,0.00,0,Wunderground v.1.15,2013-01-24 05:48:00,
2013-01-24 00:53:00,16.3,12.8,30.11,South,169,0.0,0.0,86,0.00,,,0.00,0,Wunderground v.1.15,2013-01-24 05:53:00,
2013-01-24 00:58:00,16.3,12.8,30.11,South,169,0.0,0.0,86,0.00,,,0.00,0,Wunderground v.1.15,2013-01-24 05:58:00,
2013-01-24 01:04:00,16.3,12.8,30.11,South,169,0.0,0.0,86,0.00,,,0.00,0,Wunderground v.1.15,2013-01-24 06:04:00,
2013-01-24 01:09:00,16.4,12.9,30.10,South,169,0.0,0.0,86,0.00,,,0.00,0,Wunderground v.1.15,2013-01-24 06:09:00,
2013-01-24 01:14:00,16.3,12.8,30.11,South,169,0.0,0.0,86,0.00,,,0.00,0,Wunderground v.1.15,2013-01-24 06:14:00,
2013-01-24 01:20:00,16.4,13.2,30.11,South,169,0.0,0.0,87,0.00,,,0.00,0,Wunderground v.1.15,2013-01-24 06:20:00,
2013-01-24 01:25:00,16.4,13.2,30.11,South,169,0.0,0.0,87,0.00,,,0.00,0,Wunderground v.1.15,2013-01-24 06:25:00,
2013-01-24 01:31:00,16.4,13.2,30.10,South,169,0.0,0.0,87,0.00,,,0.00,0,Wunderground v.1.15,2013-01-24 06:31:00,
2013-01-24 01:36:00,16.4,13.2,30.11,South,169,0.0,0.0,87,0.00,,,0.00,0,Wunderground v.1.15,2013-01-24 06:36:00,
2013-01-24 01:42:00,16.4,13.2,30.11,South,169,0.0,0.0,87,0.00,,,0.00,0,Wunderground v.1.15,2013-01-24 06:42:00,
2013-01-24 01:47:00,16.4,13.2,30.11,South,169,0.0,0.0,87,0.00,,,0.00,0,Wunderground v.1.15,2013-01-24 06:47:00,
2013-01-24 01:53:00,16.4,13.2,30.11,South,169,0.0,0.0,87,0.00,,,0.00,0,Wunderground v.1.15,2013-01-24 06:53:00,
2013-01-24 01:59:00,16.4,13.2,30.11,South,169,0.0,0.0,87,0.00,,,0.00,0,Wunderground v.1.15,2013-01-24 06:59:00,
2013-01-24 02:05:00,16.4,13.2,30.11,South,169,0.0,0.0,87,0.00,,,0.00,0,Wunderground v.1.15,2013-01-24 07:05:00,
2013-01-24 02:10:00,16.3,13.1,30.11,South,169,0.0,0.0,87,0.00,,,0.00,0,Wunderground v.1.15,2013-01-24 07:10:00,
2013-01-24 02:15:00,16.3,13.1,30.12,South,169,0.0,0.0,87,0.00,,,0.00,0,Wunderground v.1.15,2013-01-24 07:15:00,
2013-01-24 02:21:00,16.3,13.4,30.12,South,169,0.0,0.0,88,0.00,,,0.00,0,Wunderground v.1.15,2013-01-24 07:21:00,
2013-01-24 02:27:00,16.3,13.4,30.13,South,169,0.0,0.0,88,0.00,,,0.00,0,Wunderground v.1.15,2013-01-24 07:27:00,
2013-01-24 02:32:00,16.3,13.4,30.13,South,169,0.0,0.0,88,0.00,,,0.00,0,Wunderground v.1.15,2013-01-24 07:32:00,
2013-01-24 02:37:00,16.3,13.4,30.13,South,169,0.0,0.0,88,0.00,,,0.00,0,Wunderground v.1.15,2013-01-24 07:37:00,
2013-01-24 02:43:00,16.3,13.4,30.13,South,169,0.0,0.0,88,0.00,,,0.00,0,Wunderground v.1.15,2013-01-24 07:43:00,
2013-01-24 02:49:00,16.3,13.4,30.13,South,169,0.0,0.0,88,0.00,,,0.00,0,Wunderground v.1.15,2013-01-24 07:49:00,
2013-01-24 02:54:00,16.3,13.4,30.14,South,169,0.0,0.0,88,0.00,,,0.00,0,Wunderground v.1.15,2013-01-24 07:54:00,
2013-01-24 02:59:00,16.2,13.3,30.13,South,169,0.0,0.0,88,0.00,,,0.00,0,Wunderground v.1.15,2013-01-24 07:59:00,
2013-01-24 03:04:00,16.1,13.2,30.14,South,169,0.0,0.0,88,0.00,,,0.00,0,Wunderground v.1.15,2013-01-24 08:04:00,
2013-01-24 03:09:00,16.0,13.1,30.14,South,169,0.0,0.0,88,0.00,,,0.00,0,Wunderground v.1.15,2013-01-24 08:09:00,
2013-01-24 03:15:00,15.9,13.0,30.14,South,169,0.0,0.0,88,0.00,,,0.00,0,Wunderground v.1.15,2013-01-24 08:15:00,
2013-01-24 03:22:00,15.7,12.8,30.14,South,169,0.0,0.0,88,0.00,,,0.00,0,Wunderground v.1.15,2013-01-24 08:22:00,
2013-01-24 03:27:00,15.7,12.8,30.14,South,169,0.0,0.0,88,0.00,,,0.00,0,Wunderground v.1.15,2013-01-24 08:27:00,
2013-01-24 03:32:00,15.6,12.7,30.14,South,169,0.0,0.0,88,0.00,,,0.00,0,Wunderground v.1.15,2013-01-24 08:32:00,
2013-01-24 03:38:00,15.6,12.7,30.15,South,169,0.0,0.0,88,0.00,,,0.00,0,Wunderground v.1.15,2013-01-24 08:38:00,
2013-01-24 03:43:00,15.7,13.0,30.15,South,169,0.0,0.0,89,0.00,,,0.00,0,Wunderground v.1.15,2013-01-24 08:43:00,
2013-01-24 03:48:00,15.7,13.0,30.15,South,169,0.0,0.0,89,0.00,,,0.00,0,Wunderground v.1.15,2013-01-24 08:48:00,
2013-01-24 03:53:00,15.8,13.1,30.15,South,169,0.0,0.0,89,0.00,,,0.00,0,Wunderground v.1.15,2013-01-24 08:53:00,
2013-01-24 03:58:00,15.8,13.1,30.16,South,169,0.0,0.0,89,0.00,,,0.00,0,Wunderground v.1.15,2013-01-24 08:58:00,
2013-01-24 04:04:00,15.9,13.2,30.16,South,169,0.0,0.0,89,0.00,,,0.00,0,Wunderground v.1.15,2013-01-24 09:04:00,
2013-01-24 04:10:00,15.9,13.2,30.16,South,169,0.0,0.0,89,0.00,,,0.00,0,Wunderground v.1.15,2013-01-24 09:10:00,
2013-01-24 04:15:00,15.8,12.9,30.16,South,169,0.0,0.0,88,0.00,,,0.00,0,Wunderground v.1.15,2013-01-24 09:15:00,
2013-01-24 04:20:00,15.8,12.9,30.17,South,169,0.0,0.0,88,0.00,,,0.00,0,Wunderground v.1.15,2013-01-24 09:20:00,
2013-01-24 04:26:00,15.9,13.2,30.17,South,171,0.0,0.0,89,0.00,,,0.00,0,Wunderground v.1.15,2013-01-24 09:26:00,
2013-01-24 04:33:00,16.0,13.3,30.18,WNW,287,0.0,0.0,89,0.00,,,0.00,0,Wunderground v.1.15,2013-01-24 09:33:00,
2013-01-24 04:38:00,16.1,13.4,30.18,WNW,287,0.0,0.0,89,0.00,,,0.00,0,Wunderground v.1.15,2013-01-24 09:38:00,
2013-01-24 04:44:00,16.1,13.4,30.18,WNW,287,0.0,0.0,89,0.00,,,0.00,0,Wunderground v.1.15,2013-01-24 09:44:00,
2013-01-24 04:50:00,16.1,13.2,30.18,WNW,287,0.0,0.0,88,0.00,,,0.00,0,Wunderground v.1.15,2013-01-24 09:50:00,
2013-01-24 04:56:00,16.1,13.2,30.19,WNW,287,0.0,0.0,88,0.00,,,0.00,0,Wunderground v.1.15,2013-01-24 09:56:00,
2013-01-24 05:01:00,16.1,13.2,30.19,WNW,287,0.0,0.0,88,0.00,,,0.00,0,Wunderground v.1.15,2013-01-24 10:01:00,
2013-01-24 05:06:00,16.1,13.2,30.20,WNW,287,0.0,1.0,88,0.00,,,0.00,0,Wunderground v.1.15,2013-01-24 10:06:00,
2013-01-24 05:11:00,16.1,13.2,30.20,WNW,287,0.0,0.0,88,0.00,,,0.00,0,Wunderground v.1.15,2013-01-24 10:11:00,
2013-01-24 05:17:00,16.1,13.2,30.20,WNW,287,0.0,0.0,88,0.00,,,0.00,0,Wunderground v.1.15,2013-01-24 10:17:00,
2013-01-24 05:22:00,16.1,13.2,30.21,North,355,0.0,0.0,88,0.00,,,0.00,0,Wunderground v.1.15,2013-01-24 10:22:00,
2013-01-24 05:28:00,16.1,13.2,30.21,WNW,298,0.0,0.0,88,0.00,,,0.00,0,Wunderground v.1.15,2013-01-24 10:28:00,
2013-01-24 05:34:00,16.1,12.9,30.21,NNW,332,0.0,1.0,87,0.00,,,0.00,0,Wunderground v.1.15,2013-01-24 10:34:00,
2013-01-24 05:39:00,16.2,13.0,30.21,NW,309,1.0,5.0,87,0.00,,,0.00,0,Wunderground v.1.15,2013-01-24 10:39:00,
2013-01-24 05:44:00,16.2,13.0,30.22,NNW,341,1.0,1.0,87,0.00,,,0.00,0,Wunderground v.1.15,2013-01-24 10:44:00,
2013-01-24 05:49:00,16.2,13.0,30.22,NNW,342,1.0,4.0,87,0.00,,,0.00,0,Wunderground v.1.15,2013-01-24 10:49:00,
2013-01-24 05:55:00,16.1,12.9,30.23,NNW,335,1.0,4.0,87,0.00,,,0.00,0,Wunderground v.1.15,2013-01-24 10:55:00,
2013-01-24 06:00:00,16.1,12.9,30.23,NW,312,2.0,4.0,87,0.00,,,0.00,0,Wunderground v.1.15,2013-01-24 11:00:00,
2013-01-24 06:05:00,15.9,12.5,30.24,NW,314,2.0,3.0,86,0.00,,,0.00,0,Wunderground v.1.15,2013-01-24 11:05:00,
2013-01-24 06:10:00,15.8,12.4,30.24,North,360,1.0,5.0,86,0.00,,,0.00,0,Wunderground v.1.15,2013-01-24 11:10:00,
2013-01-24 06:16:00,15.7,12.3,30.25,NW,324,1.0,8.0,86,0.00,,,0.00,0,Wunderground v.1.15,2013-01-24 11:16:00,
2013-01-24 06:22:00,15.7,12.3,30.25,NW,318,2.0,2.0,86,0.00,,,0.00,0,Wunderground v.1.15,2013-01-24 11:22:00,
2013-01-24 06:27:00,15.7,12.3,30.25,NW,318,2.0,2.0,86,0.00,,,0.00,0,Wunderground v.1.15,2013-01-24 11:27:00,
2013-01-24 06:33:00,15.6,12.2,30.26,NW,318,0.0,1.0,86,0.00,,,0.00,0,Wunderground v.1.15,2013-01-24 11:33:00,
2013-01-24 06:39:00,15.7,12.3,30.26,NNW,348,1.0,4.0,86,0.00,,,0.00,0,Wunderground v.1.15,2013-01-24 11:39:00,
2013-01-24 06:44:00,15.6,12.2,30.27,North,5,1.0,1.0,86,0.00,,,0.00,0,Wunderground v.1.15,2013-01-24 11:44:00,
2013-01-24 06:50:00,15.6,12.2,30.27,NNW,343,0.0,3.0,86,0.00,,,0.00,0,Wunderground v.1.15,2013-01-24 11:50:00,
2013-01-24 06:55:00,15.5,12.1,30.28,North,355,1.0,5.0,86,0.00,,,0.00,0,Wunderground v.1.15,2013-01-24 11:55:00,
2013-01-24 07:01:00,15.5,12.1,30.28,NW,322,1.0,1.0,86,0.00,,,0.00,0,Wunderground v.1.15,2013-01-24 12:01:00,
2013-01-24 07:06:00,15.5,12.1,30.29,NNW,344,1.0,5.0,86,0.00,,,0.00,0,Wunderground v.1.15,2013-01-24 12:06:00,
2013-01-24 07:11:00,15.6,11.9,30.29,North,5,2.0,3.0,85,0.00,,,0.00,0,Wunderground v.1.15,2013-01-24 12:11:00,
2013-01-24 07:17:00,15.7,12.0,30.30,NW,306,3.0,7.0,85,0.00,,,0.00,0,Wunderground v.1.15,2013-01-24 12:17:00,
2013-01-24 07:23:00,15.8,12.1,30.31,NW,313,4.0,5.0,85,0.00,,,0.00,0,Wunderground v.1.15,2013-01-24 12:23:00,
2013-01-24 07:28:00,15.8,12.1,30.31,NNE,13,3.0,5.0,85,0.00,,,0.00,0,Wunderground v.1.15,2013-01-24 12:28:00,
2013-01-24 07:33:00,15.9,11.9,30.32,NNW,342,3.0,4.0,84,0.00,,,0.00,0,Wunderground v.1.15,2013-01-24 12:33:00,
2013-01-24 07:38:00,15.9,11.9,30.32,WNW,299,3.0,7.0,84,0.00,,,0.00,0,Wunderground v.1.15,2013-01-24 12:38:00,
2013-01-24 07:44:00,15.8,11.8,30.33,NW,309,4.0,5.0,84,0.00,,,0.00,0,Wunderground v.1.15,2013-01-24 12:44:00,
2013-01-24 07:50:00,15.7,11.7,30.33,North,351,2.0,7.0,84,0.00,,,0.00,5,Wunderground v.1.15,2013-01-24 12:50:00,
2013-01-24 07:56:00,15.7,11.5,30.33,North,9,4.0,7.0,83,0.00,,,0.00,11,Wunderground v.1.15,2013-01-24 12:56:00,
2013-01-24 08:02:00,15.5,11.3,30.34,North,355,4.0,5.0,83,0.00,,,0.00,12,Wunderground v.1.15,2013-01-24 13:02:00,
2013-01-24 08:07:00,15.4,11.2,30.34,North,360,3.0,5.0,83,0.00,,,0.00,16,Wunderground v.1.15,2013-01-24 13:07:00,
2013-01-24 08:14:00,15.3,11.1,30.35,NW,326,2.0,3.0,83,0.00,,,0.00,23,Wunderground v.1.15,2013-01-24 13:14:00,
2013-01-24 08:19:00,15.2,11.0,30.35,NNW,331,1.0,3.0,83,0.00,,,0.00,33,Wunderground v.1.15,2013-01-24 13:19:00,
2013-01-24 08:24:00,15.1,10.9,30.36,NNE,28,1.0,3.0,83,0.00,,,0.00,35,Wunderground v.1.15,2013-01-24 13:24:00,
2013-01-24 08:29:00,15.3,11.1,30.36,NNW,330,3.0,6.0,83,0.00,,,0.00,46,Wunderground v.1.15,2013-01-24 13:29:00,
2013-01-24 08:34:00,15.4,11.2,30.37,NNW,330,3.0,5.0,83,0.00,,,0.00,42,Wunderground v.1.15,2013-01-24 13:34:00,
2013-01-24 08:40:00,15.5,11.3,30.37,NNW,338,3.0,6.0,83,0.00,,,0.00,53,Wunderground v.1.15,2013-01-24 13:40:00,
2013-01-24 08:46:00,15.7,11.2,30.38,WNW,297,3.0,6.0,82,0.00,,,0.00,84,Wunderground v.1.15,2013-01-24 13:46:00,
2013-01-24 08:51:00,15.9,11.4,30.39,North,5,4.0,4.0,82,0.00,,,0.00,114,Wunderground v.1.15,2013-01-24 13:51:00,
2013-01-24 08:57:00,16.2,11.7,30.39,North,360,3.0,6.0,82,0.00,,,0.00,83,Wunderground v.1.15,2013-01-24 13:57:00,
2013-01-24 09:02:00,16.2,11.4,30.39,NNW,346,3.0,4.0,81,0.00,,,0.00,127,Wunderground v.1.15,2013-01-24 14:02:00,
2013-01-24 09:07:00,16.3,11.5,30.39,North,355,3.0,6.0,81,0.00,,,0.00,120,Wunderground v.1.15,2013-01-24 14:07:00,
2013-01-24 09:12:00,16.3,11.2,30.40,NNW,327,4.0,5.0,80,0.00,,,0.00,74,Wunderground v.1.15,2013-01-24 14:12:00,
2013-01-24 09:18:00,16.5,11.4,30.40,North,355,5.0,11.0,80,0.00,,,0.00,181,Wunderground v.1.15,2013-01-24 14:18:00,
2013-01-24 09:24:00,16.8,11.7,30.40,NNW,345,5.0,5.0,80,0.00,,,0.00,178,Wunderground v.1.15,2013-01-24 14:24:00,
2013-01-24 09:30:00,17.0,11.6,30.40,North,355,5.0,7.0,79,0.00,,,0.00,188,Wunderground v.1.15,2013-01-24 14:30:00,
2013-01-24 09:35:00,17.3,11.9,30.41,NW,325,4.0,5.0,79,0.00,,,0.00,188,Wunderground v.1.15,2013-01-24 14:35:00,
2013-01-24 09:42:00,17.8,12.1,30.41,North,360,3.0,6.0,78,0.00,,,0.00,165,Wunderground v.1.15,2013-01-24 14:42:00,
2013-01-24 09:47:00,17.8,11.8,30.42,NE,44,5.0,6.0,77,0.00,,,0.00,120,Wunderground v.1.15,2013-01-24 14:47:00,
2013-01-24 09:52:00,17.9,11.9,30.42,NNW,344,5.0,7.0,77,0.00,,,0.00,172,Wunderground v.1.15,2013-01-24 14:52:00,
2013-01-24 09:57:00,18.1,12.1,30.43,WNW,292,4.0,8.0,77,0.00,,,0.00,162,Wunderground v.1.15,2013-01-24 14:57:00,
2013-01-24 10:03:00,18.3,12.0,30.43,NNW,340,5.0,8.0,76,0.00,,,0.00,90,Wunderground v.1.15,2013-01-24 15:03:00,
2013-01-24 10:09:00,18.2,11.9,30.43,WNW,287,5.0,8.0,76,0.00,,,0.00,206,Wunderground v.1.15,2013-01-24 15:09:00,
2013-01-24 10:15:00,18.6,12.6,30.43,North,355,5.0,7.0,77,0.00,,,0.00,239,Wunderground v.1.15,2013-01-24 15:15:00,
2013-01-24 10:20:00,19.0,13.0,30.43,North,360,4.0,7.0,77,0.00,,,0.00,302,Wunderground v.1.15,2013-01-24 15:20:00,
2013-01-24 10:26:00,19.3,13.0,30.44,NNE,18,4.0,6.0,76,0.00,,,0.00,281,Wunderground v.1.15,2013-01-24 15:26:00,
2013-01-24 10:32:00,19.4,13.1,30.45,NNW,346,4.0,5.0,76,0.00,,,0.00,135,Wunderground v.1.15,2013-01-24 15:32:00,
2013-01-24 10:37:00,19.4,13.1,30.45,North,5,5.0,9.0,76,0.00,,,0.00,104,Wunderground v.1.15,2013-01-24 15:37:00,
2013-01-24 10:42:00,19.4,12.8,30.45,NW,317,5.0,6.0,75,0.00,,,0.00,125,Wunderground v.1.15,2013-01-24 15:42:00,
2013-01-24 10:47:00,19.3,12.7,30.46,NW,323,5.0,7.0,75,0.00,,,0.00,142,Wunderground v.1.15,2013-01-24 15:47:00,
2013-01-24 10:54:00,19.4,12.8,30.46,North,355,6.0,9.0,75,0.00,,,0.00,209,Wunderground v.1.15,2013-01-24 15:54:00,
2013-01-24 10:59:00,19.4,12.8,30.47,NNW,336,6.0,9.0,75,0.00,,,0.00,167,Wunderground v.1.15,2013-01-24 15:59:00,
2013-01-24 11:05:00,19.4,12.5,30.47,NNW,335,7.0,8.0,74,0.00,,,0.00,142,Wunderground v.1.15,2013-01-24 16:05:00,
2013-01-24 11:11:00,19.2,12.3,30.47,NNW,340,6.0,10.0,74,0.00,,,0.00,141,Wunderground v.1.15,2013-01-24 16:11:00,
2013-01-24 11:16:00,19.2,12.3,30.47,NNW,327,6.0,10.0,74,0.00,,,0.00,107,Wunderground v.1.15,2013-01-24 16:16:00,
2013-01-24 11:22:00,19.2,12.3,30.48,NNE,17,5.0,6.0,74,0.00,,,0.00,524,Wunderground v.1.15,2013-01-24 16:22:00,
2013-01-24 11:28:00,19.6,12.7,30.48,NNW,329,5.0,6.0,74,0.00,,,0.00,436,Wunderground v.1.15,2013-01-24 16:28:00,
2013-01-24 11:34:00,20.3,13.6,30.49,NW,326,4.0,6.0,75,0.00,,,0.00,214,Wunderground v.1.15,2013-01-24 16:34:00,
2013-01-24 11:40:00,20.7,13.7,30.49,North,355,4.0,8.0,74,0.00,,,0.00,454,Wunderground v.1.15,2013-01-24 16:40:00,
2013-01-24 11:45:00,20.7,13.4,30.49,West,266,5.0,6.0,73,0.00,,,0.00,209,Wunderground v.1.15,2013-01-24 16:45:00,
2013-01-24 11:50:00,20.9,13.6,30.49,West,280,5.0,10.0,73,0.00,,,0.00,232,Wunderground v.1.15,2013-01-24 16:50:00,
2013-01-24 11:55:00,21.3,13.4,30.49,NNW,342,4.0,10.0,71,0.00,,,0.00,160,Wunderground v.1.15,2013-01-24 16:55:00,
2013-01-24 12:01:00,21.0,12.1,30.50,North,355,6.0,8.0,68,0.00,,,0.00,197,Wunderground v.1.15,2013-01-24 17:01:00,
2013-01-24 12:07:00,20.7,11.8,30.49,North,360,7.0,10.0,68,0.00,,,0.00,555,Wunderground v.1.15,2013-01-24 17:07:00,
2013-01-24 12:12:00,21.1,13.2,30.49,NW,312,6.0,6.0,71,0.00,,,0.00,541,Wunderground v.1.15,2013-01-24 17:12:00,
2013-01-24 12:18:00,22.2,13.9,30.49,NW,321,4.0,7.0,70,0.00,,,0.00,598,Wunderground v.1.15,2013-01-24 17:18:00,
2013-01-24 12:25:00,22.9,13.6,30.49,WNW,298,5.0,8.0,67,0.00,,,0.00,258,Wunderground v.1.15,2013-01-24 17:25:00,
2013-01-24 12:29:00,22.7,12.7,30.49,NNW,333,7.0,10.0,65,0.00,,,0.00,410,Wunderground v.1.15,2013-01-24 17:29:00,
2013-01-24 12:35:00,22.3,12.7,30.49,NNW,345,7.0,7.0,66,0.00,,,0.00,287,Wunderground v.1.15,2013-01-24 17:35:00,
2013-01-24 12:41:00,22.2,12.2,30.49,NNW,327,7.0,7.0,65,0.00,,,0.00,378,Wunderground v.1.15,2013-01-24 17:41:00,
2013-01-24 12:47:00,22.4,12.8,30.49,North,355,7.0,8.0,66,0.00,,,0.00,599,Wunderground v.1.15,2013-01-24 17:47:00,
2013-01-24 12:52:00,22.8,13.5,30.49,NW,323,5.0,6.0,67,0.00,,,0.01,292,Wunderground v.1.15,2013-01-24 17:52:00,
2013-01-24 12:57:00,22.9,13.2,30.49,NNW,337,6.0,9.0,66,0.00,,,0.01,381,Wunderground v.1.15,2013-01-24 17:57:00,
2013-01-24 13:02:00,22.7,13.7,30.49,NW,310,7.0,7.0,68,0.00,,,0.01,415,Wunderground v.1.15,2013-01-24 18:02:00,
2013-01-24 13:08:00,23.1,13.8,30.48,NW,304,7.0,10.0,67,0.00,,,0.01,352,Wunderground v.1.15,2013-01-24 18:08:00,
2013-01-24 13:13:00,23.5,14.1,30.48,West,271,6.0,9.0,67,0.00,,,0.01,204,Wunderground v.1.15,2013-01-24 18:13:00,
2013-01-24 13:18:00,23.4,13.4,30.48,North,360,6.0,10.0,65,0.00,,,0.01,220,Wunderground v.1.15,2013-01-24 18:18:00,
2013-01-24 13:24:00,23.5,14.5,30.48,WSW,244,6.0,7.0,68,0.00,,,0.01,580,Wunderground v.1.15,2013-01-24 18:24:00,
2013-01-24 13:29:00,23.9,14.5,30.48,NNE,21,4.0,7.0,67,0.00,,,0.01,554,Wunderground v.1.15,2013-01-24 18:29:00,
2013-01-24 13:34:00,24.0,12.9,30.48,West,276,4.0,11.0,62,0.00,,,0.01,223,Wunderground v.1.15,2013-01-24 18:34:00,
2013-01-24 13:39:00,23.9,12.4,30.48,WNW,301,5.0,11.0,61,0.00,,,0.01,366,Wunderground v.1.15,2013-01-24 18:39:00,
2013-01-24 13:45:00,23.8,12.7,30.48,North,355,4.0,5.0,62,0.00,,,0.01,329,Wunderground v.1.15,2013-01-24 18:45:00,
2013-01-24 13:51:00,23.9,12.0,30.48,WNW,289,5.0,8.0,60,0.00,,,0.01,547,Wunderground v.1.15,2013-01-24 18:51:00,
2013-01-24 13:56:00,24.1,10.2,30.48,WNW,300,7.0,12.0,55,0.00,,,0.01,376,Wunderground v.1.15,2013-01-24 18:56:00,
2013-01-24 14:01:00,24.0,9.7,30.48,NNW,337,7.0,7.0,54,0.00,,,0.01,279,Wunderground v.1.15,2013-01-24 19:01:00,
2013-01-24 14:06:00,24.0,10.2,30.48,WNW,292,6.0,10.0,55,0.00,,,0.01,425,Wunderground v.1.15,2013-01-24 19:06:00,
2013-01-24 14:12:00,23.8,9.1,30.48,NW,304,7.0,7.0,53,0.00,,,0.01,334,Wunderground v.1.15,2013-01-24 19:12:00,
2013-01-24 14:17:00,23.7,8.6,30.49,NNW,347,8.0,13.0,52,0.00,,,0.01,271,Wunderground v.1.15,2013-01-24 19:17:00,
2013-01-24 14:22:00,23.7,9.0,30.48,NNW,342,8.0,14.0,53,0.00,,,0.01,343,Wunderground v.1.15,2013-01-24 19:22:00,
2013-01-24 14:28:00,23.8,8.7,30.48,NW,308,9.0,14.0,52,0.00,,,0.01,162,Wunderground v.1.15,2013-01-24 19:28:00,
2013-01-24 14:33:00,24.0,9.7,30.49,West,269,7.0,11.0,54,0.00,,,0.01,167,Wunderground v.1.15,2013-01-24 19:33:00,
2013-01-24 14:39:00,23.9,8.4,30.49,West,263,7.0,12.0,51,0.00,,,0.01,190,Wunderground v.1.15,2013-01-24 19:39:00,
2013-01-24 14:44:00,23.6,8.5,30.50,NNW,335,7.0,11.0,52,0.00,,,0.01,118,Wunderground v.1.15,2013-01-24 19:44:00,
2013-01-24 14:49:00,23.1,8.1,30.50,West,267,7.0,11.0,52,0.00,,,0.01,114,Wunderground v.1.15,2013-01-24 19:49:00,
2013-01-24 14:55:00,22.7,7.7,30.50,NNW,345,7.0,11.0,52,0.00,,,0.01,139,Wunderground v.1.15,2013-01-24 19:55:00,
2013-01-24 15:00:00,22.6,8.4,30.50,WNW,295,7.0,7.0,54,0.00,,,0.01,221,Wunderground v.1.15,2013-01-24 20:00:00,
2013-01-24 15:07:00,23.0,9.2,30.50,NNE,19,6.0,8.0,55,0.00,,,0.01,274,Wunderground v.1.15,2013-01-24 20:07:00,
2013-01-24 15:12:00,23.3,8.7,30.51,NNW,338,7.0,16.0,53,0.00,,,0.01,137,Wunderground v.1.15,2013-01-24 20:12:00,
2013-01-24 15:18:00,23.3,8.2,30.51,NNW,329,8.0,16.0,52,0.00,,,0.01,90,Wunderground v.1.15,2013-01-24 20:18:00,
2013-01-24 15:23:00,23.1,8.1,30.51,NNW,333,6.0,7.0,52,0.00,,,0.01,185,Wunderground v.1.15,2013-01-24 20:23:00,
2013-01-24 15:28:00,23.0,6.7,30.51,WNW,284,5.0,11.0,49,0.00,,,0.01,51,Wunderground v.1.15,2013-01-24 20:28:00,
2013-01-24 15:33:00,22.8,6.9,30.51,NW,322,5.0,7.0,50,0.00,,,0.01,70,Wunderground v.1.15,2013-01-24 20:33:00,
2013-01-24 15:39:00,22.6,5.4,30.51,North,360,6.0,9.0,47,0.00,,,0.01,37,Wunderground v.1.15,2013-01-24 20:39:00,
2013-01-24 15:44:00,22.4,4.2,30.51,NNW,340,6.0,15.0,45,0.00,,,0.01,156,Wunderground v.1.15,2013-01-24 20:44:00,
2013-01-24 15:49:00,22.3,4.1,30.51,WNW,299,8.0,15.0,45,0.00,,,0.01,132,Wunderground v.1.15,2013-01-24 20:49:00,
2013-01-24 15:55:00,22.4,4.2,30.51,NW,321,7.0,12.0,45,0.00,,,0.01,105,Wunderground v.1.15,2013-01-24 20:55:00,
2013-01-24 16:01:00,22.3,3.7,30.51,NNW,342,8.0,9.0,44,0.00,,,0.01,109,Wunderground v.1.15,2013-01-24 21:01:00,
2013-01-24 16:06:00,22.2,3.1,30.52,North,360,8.0,11.0,43,0.00,,,0.01,127,Wunderground v.1.15,2013-01-24 21:06:00,
2013-01-24 16:13:00,22.1,2.5,30.52,NW,318,8.0,12.0,42,0.00,,,0.01,107,Wunderground v.1.15,2013-01-24 21:13:00,
2013-01-24 16:18:00,21.9,2.3,30.52,NW,311,8.0,12.0,42,0.00,,,0.01,56,Wunderground v.1.15,2013-01-24 21:18:00,
2013-01-24 16:24:00,21.8,2.2,30.52,NW,304,7.0,12.0,42,0.00,,,0.01,39,Wunderground v.1.15,2013-01-24 21:24:00,
2013-01-24 16:29:00,21.7,2.1,30.52,North,355,7.0,12.0,42,0.00,,,0.01,35,Wunderground v.1.15,2013-01-24 21:29:00,
2013-01-24 16:34:00,21.6,2.0,30.52,North,350,6.0,7.0,42,0.00,,,0.01,37,Wunderground v.1.15,2013-01-24 21:34:00,
2013-01-24 16:40:00,21.5,1.4,30.53,NW,322,6.0,9.0,41,0.00,,,0.01,26,Wunderground v.1.15,2013-01-24 21:40:00,
2013-01-24 16:45:00,21.4,2.3,30.53,North,5,6.0,10.0,43,0.00,,,0.01,21,Wunderground v.1.15,2013-01-24 21:45:00,
2013-01-24 16:51:00,21.3,1.7,30.53,North,11,6.0,10.0,42,0.00,,,0.01,19,Wunderground v.1.15,2013-01-24 21:51:00,
2013-01-24 16:57:00,21.2,2.2,30.53,NNW,348,4.0,8.0,43,0.00,,,0.01,23,Wunderground v.1.15,2013-01-24 21:57:00,
2013-01-24 17:02:00,21.1,2.1,30.53,North,10,4.0,8.0,43,0.00,,,0.01,12,Wunderground v.1.15,2013-01-24 22:02:00,
2013-01-24 17:07:00,20.9,2.4,30.54,NNW,342,4.0,8.0,44,0.00,,,0.01,9,Wunderground v.1.15,2013-01-24 22:07:00,
2013-01-24 17:13:00,20.8,2.8,30.54,NNW,346,4.0,5.0,45,0.00,,,0.01,7,Wunderground v.1.15,2013-01-24 22:13:00,
2013-01-24 17:18:00,20.7,2.7,30.54,NE,45,5.0,7.0,45,0.00,,,0.01,5,Wunderground v.1.15,2013-01-24 22:18:00,
2013-01-24 17:24:00,20.5,3.0,30.55,NNE,15,5.0,6.0,46,0.00,,,0.01,0,Wunderground v.1.15,2013-01-24 22:24:00,
2013-01-24 17:30:00,20.3,3.2,30.55,NNE,23,2.0,2.0,47,0.00,,,0.01,0,Wunderground v.1.15,2013-01-24 22:30:00,
2013-01-24 17:36:00,20.1,3.5,30.54,North,355,3.0,7.0,48,0.00,,,0.01,0,Wunderground v.1.15,2013-01-24 22:36:00,
2013-01-24 17:41:00,19.9,3.3,30.55,North,355,4.0,5.0,48,0.00,,,0.01,0,Wunderground v.1.15,2013-01-24 22:41:00,
2013-01-24 17:47:00,19.8,3.2,30.55,North,360,3.0,6.0,48,0.00,,,0.01,0,Wunderground v.1.15,2013-01-24 22:47:00,
2013-01-24 17:52:00,19.7,4.0,30.56,NNE,26,2.0,2.0,50,0.00,,,0.01,0,Wunderground v.1.15,2013-01-24 22:52:00,
2013-01-24 17:58:00,19.4,3.8,30.56,NNW,339,2.0,6.0,50,0.00,,,0.01,0,Wunderground v.1.15,2013-01-24 22:58:00,
2013-01-24 18:04:00,19.3,4.1,30.56,NNE,30,4.0,4.0,51,0.00,,,0.01,0,Wunderground v.1.15,2013-01-24 23:04:00,
2013-01-24 18:09:00,19.1,3.9,30.57,North,355,3.0,5.0,51,0.00,,,0.01,0,Wunderground v.1.15,2013-01-24 23:09:00,
2013-01-24 18:14:00,19.0,4.2,30.57,NNW,343,2.0,5.0,52,0.00,,,0.01,0,Wunderground v.1.15,2013-01-24 23:14:00,
2013-01-24 18:20:00,18.8,4.1,30.57,NNW,348,2.0,5.0,52,0.00,,,0.01,0,Wunderground v.1.15,2013-01-24 23:20:00,
2013-01-24 18:27:00,18.5,4.2,30.57,North,360,1.0,2.0,53,0.00,,,0.01,0,Wunderground v.1.15,2013-01-24 23:27:00,
2013-01-24 18:33:00,18.2,3.9,30.58,NNE,24,1.0,2.0,53,0.00,,,0.01,0,Wunderground v.1.15,2013-01-24 23:33:00,
2013-01-24 18:38:00,18.1,3.8,30.58,NNW,329,2.0,3.0,53,0.00,,,0.01,0,Wunderground v.1.15,2013-01-24 23:38:00,
2013-01-24 18:43:00,18.0,4.1,30.58,NNW,333,1.0,4.0,54,0.00,,,0.01,0,Wunderground v.1.15,2013-01-24 23:43:00,
2013-01-24 18:48:00,17.9,3.6,30.58,NNE,30,1.0,5.0,53,0.00,,,0.01,0,Wunderground v.1.15,2013-01-24 23:48:00,
2013-01-24 18:54:00,17.9,4.0,30.59,NNW,342,2.0,5.0,54,0.00,,,0.01,0,Wunderground v.1.15,2013-01-24 23:54:00,
2013-01-24 19:01:00,17.6,3.8,30.59,North,355,1.0,1.0,54,0.00,,,0.01,0,Wunderground v.1.15,2013-01-25 00:01:00,
2013-01-24 21:44:00,12.3,4.1,30.58,NNE,16,0.0,0.0,69,0.00,,,0.01,0,Wunderground v.1.15,2013-01-25 02:44:00,
2013-01-24 21:49:00,12.1,4.5,30.58,NNE,16,0.0,0.0,71,0.00,,,0.01,0,Wunderground v.1.15,2013-01-25 02:49:00,
2013-01-24 21:56:00,11.8,4.2,30.57,NNE,16,0.0,0.0,71,0.00,,,0.01,0,Wunderground v.1.15,2013-01-25 02:56:00,
2013-01-24 22:01:00,11.5,3.9,30.57,NNE,16,0.0,0.0,71,0.00,,,0.01,0,Wunderground v.1.15,2013-01-25 03:01:00,
2013-01-24 22:06:00,11.1,4.1,30.57,NNE,16,0.0,0.0,73,0.00,,,0.01,0,Wunderground v.1.15,2013-01-25 03:06:00,
2013-01-24 22:11:00,10.7,4.0,30.57,NNE,16,0.0,0.0,74,0.00,,,0.01,0,Wunderground v.1.15,2013-01-25 03:11:00,
2013-01-24 22:16:00,10.5,4.1,30.57,NNE,16,0.0,0.0,75,0.00,,,0.01,0,Wunderground v.1.15,2013-01-25 03:16:00,
2013-01-24 22:22:00,10.3,3.9,30.57,NNE,16,0.0,0.0,75,0.00,,,0.01,0,Wunderground v.1.15,2013-01-25 03:22:00,
2013-01-24 22:27:00,10.3,3.9,30.58,NNE,16,0.0,0.0,75,0.00,,,0.01,0,Wunderground v.1.15,2013-01-25 03:27:00,
2013-01-24 22:33:00,10.2,4.1,30.57,NNE,16,0.0,0.0,76,0.00,,,0.01,0,Wunderground v.1.15,2013-01-25 03:33:00,
2013-01-24 22:38:00,10.0,4.2,30.58,NNE,16,0.0,0.0,77,0.00,,,0.01,0,Wunderground v.1.15,2013-01-25 03:38:00,
2013-01-24 22:44:00,9.8,4.0,30.58,NNE,16,0.0,0.0,77,0.00,,,0.01,0,Wunderground v.1.15,2013-01-25 03:44:00,
2013-01-24 22:49:00,9.6,3.8,30.57,NNE,16,0.0,0.0,77,0.00,,,0.01,0,Wunderground v.1.15,2013-01-25 03:49:00,
2013-01-24 22:55:00,9.6,4.1,30.58,NNE,16,0.0,0.0,78,0.00,,,0.01,0,Wunderground v.1.15,2013-01-25 03:55:00,
2013-01-24 23:01:00,9.6,4.1,30.58,NNE,16,0.0,0.0,78,0.00,,,0.01,0,Wunderground v.1.15,2013-01-25 04:01:00,
2013-01-24 23:07:00,9.6,4.4,30.57,NNE,16,0.0,0.0,79,0.00,,,0.01,0,Wunderground v.1.15,2013-01-25 04:07:00,
2013-01-24 23:12:00,9.5,4.3,30.57,NNE,16,0.0,0.0,79,0.00,,,0.01,0,Wunderground v.1.15,2013-01-25 04:12:00,
2013-01-24 23:17:00,9.5,4.3,30.57,NNE,16,0.0,0.0,79,0.00,,,0.01,0,Wunderground v.1.15,2013-01-25 04:17:00,
2013-01-24 23:23:00,9.4,4.2,30.57,NNE,16,0.0,0.0,79,0.00,,,0.01,0,Wunderground v.1.15,2013-01-25 04:23:00,
2013-01-24 23:28:00,9.5,4.6,30.57,NNE,16,0.0,0.0,80,0.00,,,0.01,0,Wunderground v.1.15,2013-01-25 04:28:00,
2013-01-24 23:33:00,9.6,4.9,30.57,NNE,16,0.0,0.0,81,0.00,,,0.01,0,Wunderground v.1.15,2013-01-25 04:33:00,
2013-01-24 23:40:00,9.7,5.0,30.57,NNE,16,0.0,0.0,81,0.00,,,0.01,0,Wunderground v.1.15,2013-01-25 04:40:00,
2013-01-24 23:45:00,9.9,5.5,30.57,NNE,16,0.0,0.0,82,0.00,,,0.01,0,Wunderground v.1.15,2013-01-25 04:45:00,
2013-01-24 23:50:00,9.9,5.2,30.57,NNE,16,0.0,0.0,81,0.00,,,0.01,0,Wunderground v.1.15,2013-01-25 04:50:00,
2013-01-24 23:56:00,10.0,5.6,30.57,NNE,16,0.0,0.0,82,0.00,,,0.01,0,Wunderground v.1.15,2013-01-25 04:56:00,